Data for 08/04/2018

Time Sea-Level Adjusted Pressure Absolute Pressure Temperature Relative Humidity Dew Point   
(mb) (inHg) (mb) (inHg) (C) (F) (%) (C) (F)
00:05 1018 30.06 847 25.01 13.9 57 56 5.3 41.6
00:10 1018 30.06 847 25.01 13.5 56.4 57 5.2 41.3
00:15 1018 30.06 847 25.01 13.4 56.1 56 4.8 40.6
00:20 1018 30.06 848 25.04 13.5 56.4 50 3.5 38.3
00:25 1018 30.06 848 25.04 14.1 57.4 44 2.1 35.8
00:30 1018 30.06 848 25.04 14.7 58.5 44 2.6 36.7
00:35 1018 30.06 848 25.04 14.7 58.5 47 3.7 38.6
00:40 1019 30.09 848 25.04 14.2 57.6 45 2.5 36.4
00:45 1019 30.09 848 25.04 14.1 57.4 43 1.7 35
00:50 1019 30.09 848 25.04 14.2 57.5 43 1.9 35.4
00:55 1019 30.09 848 25.04 14.1 57.4 43 1.9 35.4
01:00 1019 30.09 848 25.04 14.3 57.7 42 1.8 35.2
01:05 1019 30.09 848 25.04 14.1 57.4 43 1.7 35
01:10 1019 30.09 848 25.04 13.9 56.9 47 2.9 37.3
01:15 1019 30.09 848 25.04 13.3 56 48 2.7 36.8
01:20 1019 30.09 848 25.04 12.8 55 51 3 37.4
01:25 1019 30.09 848 25.04 12.4 54.3 50 2.3 36.1
01:30 1019 30.09 848 25.04 12.4 54.3 50 2.3 36.1
01:35 1019 30.09 848 25.04 12.4 54.2 50 2.4 36.3
01:40 1019 30.09 848 25.04 12.6 54.6 48 1.8 35.3
01:45 1019 30.09 848 25.04 12.9 55.1 46 1.7 35
01:50 1019 30.09 848 25.04 13 55.4 47 1.9 35.5
01:55 1019 30.09 848 25.04 12.8 55.1 49 2.6 36.6
02:00 1019 30.09 848 25.04 12.5 54.5 48 1.9 35.5
02:05 1019 30.09 848 25.04 12.4 54.2 49 2.1 35.9
02:10 1019 30.09 848 25.04 12.1 53.8 49 1.7 35
02:15 1019 30.09 848 25.04 12.4 54.3 45 0.9 33.5
02:20 1019 30.09 848 25.04 12.7 54.8 44 0.9 33.7
02:25 1019 30.09 848 25.04 12.8 55 44 0.8 33.5
02:30 1019 30.09 848 25.04 13.2 55.8 36 -1.3 29.6
02:35 1019 30.09 848 25.04 14 57.3 44 2.1 35.7
02:40 1019 30.09 848 25.04 13.1 55.6 48 2.3 36.2
02:45 1019 30.09 848 25.04 12.4 54.3 47 1.5 34.6
02:50 1019 30.09 848 25.04 13 55.4 47 2 35.6
02:55 1019 30.09 848 25.04 13.1 55.6 40 0 32.1
03:00 1019 30.09 848 25.04 13.1 55.5 41 0.1 32.1
03:05 1019 30.09 848 25.04 13.3 55.9 40 0 32
03:10 1019 30.09 848 25.04 13.2 55.8 39 -0.4 31.2
03:15 1019 30.09 848 25.04 13.3 56 39 -0.4 31.3
03:20 1019 30.09 848 25.04 13.3 55.9 38 -0.5 31
03:25 1019 30.09 849 25.07 13.4 56.1 38 -0.6 31
03:30 1019 30.09 849 25.07 13.4 56.1 38 -0.7 30.8
03:35 1019 30.09 849 25.07 13.2 55.8 41 0.4 32.7
03:40 1019 30.09 849 25.07 12.5 54.5 46 1.2 34.2
03:45 1019 30.09 849 25.07 12 53.5 46 0.6 33.1
03:50 1019 30.09 849 25.07 11.6 52.9 48 0.9 33.6
03:55 1019 30.09 849 25.07 11.4 52.5 46 0.4 32.6
04:00 1020 30.12 849 25.07 11.5 52.8 46 0.5 32.9
04:05 1020 30.12 849 25.07 11.5 52.7 47 0.6 33.1
04:10 1020 30.12 849 25.07 11.4 52.6 47 0.6 33.1
04:15 1019 30.09 849 25.07 11.4 52.5 47 0.5 33
04:20 1019 30.09 849 25.07 11.4 52.5 49 1 33.9
04:25 1020 30.12 849 25.07 11 51.7 48 0.4 32.8
04:30 1019 30.09 849 25.07 10.8 51.4 49 0.5 32.9
04:35 1019 30.09 849 25.07 10.6 51.1 50 0.7 33.3
04:40 1020 30.12 849 25.07 10.5 50.9 50 0.5 32.9
04:45 1020 30.12 849 25.07 10.4 50.7 50 0.6 33.1
04:50 1020 30.12 849 25.07 10.3 50.6 52 0.9 33.5
04:55 1020 30.12 849 25.07 10 50 54 1.1 34
05:00 1020 30.12 849 25.07 9.5 49 55 0.8 33.5
05:05 1020 30.12 849 25.07 9.3 48.7 55 0.8 33.4
05:10 1020 30.12 849 25.07 9.2 48.6 54 0.5 32.8
05:15 1020 30.12 849 25.07 9.5 49 53 0.5 32.8
05:20 1020 30.12 849 25.07 9.7 49.5 51 -0 32
05:25 1020 30.12 849 25.07 10.2 50.3 47 -0.6 30.9
05:30 1020 30.12 849 25.07 10.6 51.1 46 -0.4 31.2
05:35 1020 30.12 849 25.07 10.7 51.2 47 -0.2 31.6
05:40 1020 30.12 849 25.07 10.5 50.8 48 -0.1 31.9
05:45 1020 30.12 849 25.07 10.2 50.3 49 -0.1 31.9
05:50 1020 30.12 849 25.07 10.1 50.1 48 -0.3 31.4
05:55 1020 30.12 849 25.07 10.1 50.2 48 -0.5 31.2
06:00 1020 30.12 849 25.07 10.2 50.4 47 -0.7 30.8
06:05 1020 30.12 849 25.07 10.6 51.1 46 -0.6 30.9
06:10 1020 30.12 849 25.07 10.6 51.1 46 -0.4 31.3
06:15 1020 30.12 849 25.07 10.2 50.3 49 -0 31.9
06:20 1020 30.12 849 25.07 9.9 49.8 49 -0.2 31.6
06:25 1020 30.12 849 25.07 9.7 49.5 49 -0.3 31.4
06:30 1020 30.12 849 25.07 9.6 49.2 52 0.2 32.3
06:35 1020 30.12 849 25.07 9.3 48.8 52 0.1 32.2
06:40 1020 30.12 849 25.07 9.2 48.6 53 0.1 32.1
06:45 1020 30.12 849 25.07 9.3 48.7 52 -0.1 31.8
06:50 1020 30.12 849 25.07 9.4 48.9 51 -0.2 31.6
06:55 1020 30.12 849 25.07 9.6 49.3 49 -0.7 30.8
07:00 1020 30.12 849 25.07 10.1 50.1 46 -0.9 30.4
07:05 1020 30.12 849 25.07 10.6 51.2 43 -1.3 29.7
07:10 1020 30.12 849 25.07 11.2 52.1 44 -0.7 30.8
07:15 1020 30.12 849 25.07 11.4 52.5 45 -0.2 31.6
07:20 1020 30.12 849 25.07 11.4 52.4 46 0.1 32.2
07:25 1020 30.12 849 25.07 11.3 52.4 49 1 33.8
07:30 1020 30.12 849 25.07 11.2 52.2 50 1.3 34.3
07:35 1020 30.12 849 25.07 10.8 51.5 50 0.9 33.6
07:40 1020 30.12 849 25.07 10.9 51.6 47 0.1 32.2
07:45 1020 30.12 849 25.07 11.3 52.3 49 1 33.8
07:50 1020 30.12 849 25.07 11.2 52.2 50 1.3 34.4
07:55 1020 30.12 849 25.07 11.2 52.1 50 1.2 34.2
08:00 1020 30.12 849 25.07 11.5 52.7 48 1 33.8
08:05 1020 30.12 849 25.07 11.9 53.4 48 1.3 34.4
08:10 1020 30.12 849 25.07 12.1 53.8 46 1 33.8
08:15 1020 30.12 849 25.07 12.2 54 45 0.7 33.2
08:20 1020 30.12 849 25.07 12.8 55 41 -0.2 31.7
08:25 1020 30.12 849 25.07 13.5 56.3 39 -0.1 31.8
08:30 1020 30.12 849 25.07 14 57.2 39 0.3 32.5
08:35 1020 30.12 849 25.07 14.4 57.9 38 0.2 32.3
08:40 1020 30.12 849 25.07 14.8 58.7 36 0.1 32.1
08:45 1020 30.12 849 25.07 15.5 59.8 35 0 32
08:50 1020 30.12 849 25.07 16 60.8 32 -0.4 31.2
08:55 1020 30.12 849 25.07 16.4 61.5 33 0.2 32.4
09:00 1020 30.12 849 25.07 16 60.9 35 0.5 32.9
09:05 1020 30.12 849 25.07 16.8 62.2 33 0.4 32.8
09:10 1020 30.12 849 25.07 16.9 62.4 33 0.5 32.9
09:15 1020 30.12 849 25.07 17 62.5 32 0.3 32.6
09:20 1020 30.12 849 25.07 17.4 63.4 31 0.2 32.3
09:25 1020 30.12 849 25.07 17.6 63.7 31 0.5 32.9
09:30 1020 30.12 849 25.07 18.1 64.6 32 1.3 34.3
09:35 1020 30.12 849 25.07 18.4 65.1 31 1 33.8
09:40 1020 30.12 849 25.07 18.5 65.2 31 1 33.8
09:45 1020 30.12 849 25.07 18.6 65.4 30 0.8 33.5
09:50 1020 30.12 849 25.07 18.5 65.3 31 1.2 34.2
09:55 1020 30.12 849 25.07 18.9 66.1 30 1 33.8
10:00 1020 30.12 849 25.07 19 66.1 29 0.7 33.2
10:05 1020 30.12 849 25.07 19.1 66.3 27 0 32
10:10 1020 30.12 849 25.07 19.5 67 27 0.4 32.6
10:15 1020 30.12 849 25.07 19.6 67.4 26 0 32
10:20 1020 30.12 849 25.07 19.5 67.1 28 0.7 33.2
10:25 1020 30.12 849 25.07 19.2 66.6 27 -0.1 31.7
10:30 1020 30.12 849 25.07 19.1 66.4 27 -0 32
10:35 1020 30.12 849 25.07 19.3 66.7 28 0.3 32.5
10:40 1020 30.12 849 25.07 19.4 67 29 1.2 34.1
10:45 1020 30.12 849 25.07 19.3 66.7 26 -0.4 31.2
10:50 1020 30.12 849 25.07 20.2 68.3 25 -0.6 31
10:55 1020 30.12 849 25.07 20.3 68.5 26 0.3 32.5
11:00 1020 30.12 849 25.07 20.5 68.9 25 -0.1 31.8
11:05 1020 30.12 849 25.07 20.8 69.4 25 0 32.1
11:10 1020 30.12 849 25.07 20.6 69.1 22 -1.4 29.4
11:15 1020 30.12 849 25.07 20.9 69.7 22 -1.4 29.5
11:20 1020 30.12 849 25.07 20.9 69.7 22 -1.6 29.1
11:25 1020 30.12 849 25.07 21 69.7 20 -2.5 27.6
11:30 1020 30.12 849 25.07 21 69.9 21 -2 28.4
11:35 1020 30.12 849 25.07 21.1 70 22 -1.1 30
11:40 1020 30.12 849 25.07 21.2 70.1 22 -1.3 29.7
11:45 1019 30.09 849 25.07 21.2 70.1 20 -2.4 27.6
11:50 1020 30.12 849 25.07 21.3 70.4 21 -1.4 29.4
11:55 1019 30.09 849 25.07 21.4 70.5 21 -1.5 29.3
12:00 1019 30.09 849 25.07 21.2 70.2 22 -1.1 30
12:05 1019 30.09 849 25.07 20.9 69.5 20 -2.9 26.8
12:10 1019 30.09 849 25.07 20.3 68.6 22 -2.2 28.1
12:15 1019 30.09 849 25.07 21.3 70.3 21 -2 28.4
12:20 1019 30.09 849 25.07 21.8 71.2 20 -1.8 28.8
12:25 1019 30.09 849 25.07 22.2 72 20 -1.9 28.5
12:30 1019 30.09 849 25.07 21.3 70.3 21 -1.5 29.3
12:35 1019 30.09 848 25.04 20.9 69.6 22 -1.4 29.5
12:40 1019 30.09 848 25.04 22.1 71.7 19 -2.7 27.2
12:45 1019 30.09 848 25.04 22 71.5 20 -1.5 29.3
12:50 1019 30.09 848 25.04 21.7 71 21 -1.6 29.1
12:55 1019 30.09 848 25.04 22 71.6 21 -1.2 29.8
13:00 1019 30.09 848 25.04 22.6 72.7 19 -1.9 28.6
13:05 1019 30.09 848 25.04 23.3 73.9 19 -1.3 29.6
13:10 1019 30.09 848 25.04 23.1 73.6 19 -1.3 29.6
13:15 1019 30.09 848 25.04 22.3 72.1 21 -1 30.2
13:20 1019 30.09 848 25.04 22.1 71.7 21 -1.1 30
13:25 1019 30.09 848 25.04 22.1 71.7 21 -1.2 29.8
13:30 1019 30.09 848 25.04 22.7 72.9 19 -1.6 29.1
13:35 1019 30.09 848 25.04 23.2 73.8 20 -0.8 30.5
13:40 1019 30.09 848 25.04 23.1 73.6 19 -1.5 29.3
13:45 1019 30.09 848 25.04 22.8 73 19 -2.1 28.2
13:50 1019 30.09 848 25.04 22.3 72.2 21 -0.8 30.6
13:55 1019 30.09 848 25.04 22.5 72.5 20 -1.1 30
14:00 1018 30.06 848 25.04 22.3 72.1 21 -0.9 30.3
14:05 1018 30.06 848 25.04 22.7 72.9 21 -0.8 30.6
14:10 1018 30.06 848 25.04 22.9 73.3 20 -1.4 29.6
14:15 1018 30.06 848 25.04 23.1 73.6 21 -0.2 31.6
14:20 1018 30.06 848 25.04 23.4 74 19 -1.1 30
14:25 1018 30.06 848 25.04 22.4 72.3 21 -0.9 30.4
14:30 1018 30.06 848 25.04 23.1 73.6 19 -1.4 29.5
14:35 1018 30.06 848 25.04 23.3 73.9 20 -1 30.1
14:40 1018 30.06 848 25.04 23.4 74 19 -1.2 29.8
14:45 1018 30.06 848 25.04 22.6 72.6 20 -1.3 29.7
14:50 1018 30.06 847 25.01 23 73.4 20 -0.7 30.7
14:55 1018 30.06 848 25.04 23.6 74.5 19 -1.2 29.8
15:00 1018 30.06 848 25.04 24.1 75.3 18 -1.8 28.7
15:05 1018 30.06 848 25.04 23.9 75.1 18 -1.4 29.4
15:10 1018 30.06 848 25.04 24.5 76.1 19 -0.3 31.4
15:15 1018 30.06 847 25.01 24.6 76.2 19 -0.6 30.9
15:20 1018 30.06 847 25.01 24.4 75.9 19 -0.5 31.1
15:25 1018 30.06 847 25.01 24.7 76.4 19 -0.4 31.2
15:30 1018 30.06 847 25.01 24.4 75.9 18 -1.5 29.3
15:35 1018 30.06 847 25.01 24.5 76.1 17 -1.7 29
15:40 1018 30.06 847 25.01 24.4 76 16 -2.9 26.7
15:45 1018 30.06 847 25.01 24.6 76.2 17 -1.9 28.6
15:50 1018 30.06 847 25.01 24.1 75.5 17 -2.3 27.8
15:55 1018 30.06 847 25.01 23.8 74.8 18 -2.1 28.2
16:00 1018 30.06 847 25.01 24.3 75.8 17 -2.2 28
16:05 1018 30.06 847 25.01 23.9 75.1 18 -1.8 28.7
16:10 1018 30.06 847 25.01 24.4 75.9 17 -2.2 28
16:15 1018 30.06 847 25.01 25 76.9 15 -3.3 26.1
16:20 1018 30.06 847 25.01 25.1 77.1 15 -2.9 26.9
16:25 1018 30.06 847 25.01 25.1 77.3 14 -3.5 25.6
16:30 1018 30.06 847 25.01 25.2 77.4 15 -3.3 26
16:35 1018 30.06 847 25.01 25.4 77.6 16 -2 28.5
16:40 1018 30.06 847 25.01 24.8 76.6 15 -2.9 26.7
16:45 1018 30.06 847 25.01 24.2 75.5 16 -2.8 27
16:50 1018 30.06 847 25.01 24.3 75.8 15 -3.3 26
16:55 1018 30.06 847 25.01 24.4 76 16 -2.5 27.4
17:00 1018 30.06 847 25.01 24.4 75.9 15 -3.7 25.3
17:05 1018 30.06 847 25.01 24.9 76.8 16 -2.7 27.1
17:10 1018 30.06 847 25.01 25.3 77.5 15 -3 26.6
17:15 1018 30.06 847 25.01 25.6 78.1 15 -2.7 27.1
17:20 1018 30.06 847 25.01 25.2 77.4 15 -2.9 26.8
17:25 1018 30.06 847 25.01 25 77 15 -3 26.6
17:30 1018 30.06 847 25.01 25.1 77.1 15 -3.2 26.2
17:35 1018 30.06 847 25.01 25.3 77.5 15 -3.4 25.9
17:40 1018 30.06 847 25.01 25.6 78.1 15 -3.1 26.4
17:45 1018 30.06 847 25.01 25.6 78 14 -3.2 26.2
17:50 1018 30.06 847 25.01 25.7 78.3 15 -2.9 26.7
17:55 1018 30.06 847 25.01 25.6 78 15 -2.7 27.2
18:00 1018 30.06 847 25.01 25.2 77.3 16 -2.6 27.4
18:05 1018 30.06 847 25.01 24.3 75.8 16 -2.7 27.1
18:10 1017 30.03 847 25.01 24.1 75.3 15 -3.7 25.3
18:15 1018 30.06 847 25.01 24.6 76.3 15 -3.6 25.4
18:20 1018 30.06 847 25.01 24.5 76 16 -2.5 27.5
18:25 1017 30.03 847 25.01 25.2 77.4 15 -2.9 26.9
18:30 1017 30.03 847 25.01 24.9 76.8 15 -3.4 25.9
18:35 1017 30.03 847 25.01 24.9 76.7 15 -3.2 26.2
18:40 1017 30.03 847 25.01 24.9 76.8 15 -3.4 26
18:45 1017 30.03 846 24.98 25.1 77.2 15 -3.3 26
18:50 1017 30.03 846 24.98 24.9 76.8 15 -3.5 25.7
18:55 1017 30.03 846 24.98 24.4 75.9 17 -2.1 28.3
19:00 1017 30.03 846 24.98 24.3 75.7 17 -2.5 27.6
19:05 1017 30.03 846 24.98 24.1 75.3 15 -3.7 25.4
19:10 1017 30.03 846 24.98 23.9 74.9 17 -2.3 27.8
19:15 1017 30.03 846 24.98 23.7 74.7 17 -2.7 27.2
19:20 1017 30.03 847 25.01 23.7 74.6 18 -2 28.3
19:25 1017 30.03 847 25.01 23.6 74.5 18 -1.6 29.2
19:30 1017 30.03 847 25.01 23.2 73.8 19 -1.4 29.4
19:35 1017 30.03 847 25.01 23.3 73.9 19 -1.4 29.4
19:40 1017 30.03 847 25.01 23.3 73.9 21 -0.4 31.3
19:45 1017 30.03 847 25.01 23.1 73.6 21 -0.4 31.2
19:50 1017 30.03 847 25.01 22.9 73.3 20 -0.8 30.6
19:55 1017 30.03 847 25.01 22.9 73.3 20 -0.7 30.8
20:00 1017 30.03 847 25.01 22.8 73.1 22 0.4 32.7
20:05 1017 30.03 847 25.01 22.7 72.9 21 -0.3 31.5
20:10 1017 30.03 847 25.01 22.5 72.5 21 -0.6 30.9
20:15 1017 30.03 847 25.01 22.3 72.1 22 -0.3 31.4
20:20 1017 30.03 847 25.01 21.9 71.5 23 -0.1 31.8
20:25 1017 30.03 847 25.01 21.7 71.1 22 -0.5 31
20:30 1017 30.03 847 25.01 21.6 70.8 24 0.1 32.2
20:35 1017 30.03 847 25.01 21.6 70.8 24 0.3 32.5
20:40 1018 30.06 847 25.01 21.5 70.6 23 -0.3 31.4
20:45 1018 30.06 847 25.01 21.3 70.3 23 -0.2 31.6
20:50 1018 30.06 847 25.01 21.1 70 28 2.2 35.9
20:55 1018 30.06 847 25.01 20.7 69.2 31 3.1 37.6
21:00 1018 30.06 847 25.01 19.8 67.7 34 3.5 38.2
21:05 1018 30.06 847 25.01 19.2 66.6 34 2.9 37.3
21:10 1018 30.06 847 25.01 18.8 65.9 35 3.4 38.1
21:15 1018 30.06 847 25.01 18.5 65.4 35 3 37.4
21:20 1018 30.06 847 25.01 17.9 64.2 41 4.4 40
21:25 1018 30.06 847 25.01 17.1 62.9 42 4.1 39.4
21:30 1018 30.06 847 25.01 16.8 62.3 42 3.9 39
21:35 1018 30.06 848 25.04 16.9 62.3 37 2.1 35.9
21:40 1018 30.06 848 25.04 17.3 63.1 36 2.3 36.1
21:45 1018 30.06 848 25.04 17.2 63 36 2.3 36.1
21:50 1018 30.06 848 25.04 17.3 63.1 35 1.7 35.1
21:55 1018 30.06 848 25.04 17.1 62.8 36 2.2 35.9
22:00 1018 30.06 848 25.04 16.8 62.2 36 1.7 35.1
22:05 1018 30.06 848 25.04 16.9 62.4 34 0.9 33.7
22:10 1018 30.06 848 25.04 17.2 63 33 1 33.7
22:15 1018 30.06 848 25.04 17.4 63.2 32 0.6 33
22:20 1019 30.09 848 25.04 17.4 63.3 33 1.2 34.1
22:25 1019 30.09 848 25.04 17 62.7 34 1 33.8
22:30 1019 30.09 848 25.04 17.3 63.1 33 1 33.7
22:35 1019 30.09 848 25.04 17.6 63.7 33 1.4 34.5
22:40 1019 30.09 849 25.07 17.6 63.7 35 2.2 36
22:45 1020 30.12 849 25.07 17.4 63.4 34 1.5 34.7
22:50 1020 30.12 849 25.07 17.9 64.2 28 -0.9 30.5
22:55 1020 30.12 849 25.07 18.3 65 34 2.5 36.4
23:00 1020 30.12 849 25.07 19 66.1 28 0.3 32.5
23:05 1020 30.12 849 25.07 19 66.1 30 1.1 33.9
23:10 1020 30.12 849 25.07 19 66.1 29 0.5 32.9
23:15 1020 30.12 849 25.07 19.3 66.7 29 0.8 33.4
23:20 1020 30.12 849 25.07 19.2 66.5 29 0.9 33.7
23:25 1019 30.09 848 25.04 19 66.2 28 0.2 32.4
23:30 1019 30.09 848 25.04 19.1 66.3 28 0.3 32.5
23:35 1019 30.09 848 25.04 19.1 66.4 28 0.5 32.9
23:40 1019 30.09 848 25.04 19.2 66.6 29 0.9 33.6
23:45 1019 30.09 848 25.04 18.8 65.9 31 1.4 34.5
23:50 1019 30.09 848 25.04 18.3 64.9 33 1.9 35.4
23:55 1019 30.09 849 25.07 18 64.3 33 1.7 35.1
24:00 1020 30.12 849 25.07 17.9 64.2 34 1.8 35.2